地図

経路データ

SID SEASON NUMBER BASIN SUBBASIN NAME ISO_TIME NATURE LAT LON WMO_WIND WMO_PRES WMO_AGENCY TRACK_TYPE DIST2LAND LANDFALL IFLAG USA_AGENCY USA_ATCF_ID USA_LAT USA_LON USA_RECORD USA_STATUS USA_WIND USA_PRES USA_SSHS USA_R34_NE USA_R34_SE USA_R34_SW USA_R34_NW USA_R50_NE USA_R50_SE USA_R50_SW USA_R50_NW USA_R64_NE USA_R64_SE USA_R64_SW USA_R64_NW USA_POCI USA_ROCI USA_RMW USA_EYE TOKYO_LAT TOKYO_LON TOKYO_GRADE TOKYO_WIND TOKYO_PRES TOKYO_R50_DIR TOKYO_R50_LONG TOKYO_R50_SHORT TOKYO_R30_DIR TOKYO_R30_LONG TOKYO_R30_SHORT TOKYO_LAND CMA_LAT CMA_LON CMA_CAT CMA_WIND CMA_PRES HKO_LAT HKO_LON HKO_CAT HKO_WIND HKO_PRES NEWDELHI_LAT NEWDELHI_LON NEWDELHI_GRADE NEWDELHI_WIND NEWDELHI_PRES NEWDELHI_CI NEWDELHI_DP NEWDELHI_POCI REUNION_LAT REUNION_LON REUNION_TYPE REUNION_WIND REUNION_PRES REUNION_TNUM REUNION_CI REUNION_RMW REUNION_R34_NE REUNION_R34_SE REUNION_R34_SW REUNION_R34_NW REUNION_R50_NE REUNION_R50_SE REUNION_R50_SW REUNION_R50_NW REUNION_R64_NE REUNION_R64_SE REUNION_R64_SW REUNION_R64_NW BOM_LAT BOM_LON BOM_TYPE BOM_WIND BOM_PRES BOM_TNUM BOM_CI BOM_RMW BOM_R34_NE BOM_R34_SE BOM_R34_SW BOM_R34_NW BOM_R50_NE BOM_R50_SE BOM_R50_SW BOM_R50_NW BOM_R64_NE BOM_R64_SE BOM_R64_SW BOM_R64_NW BOM_ROCI BOM_POCI BOM_EYE BOM_POS_METHOD BOM_PRES_METHOD NADI_LAT NADI_LON NADI_CAT NADI_WIND NADI_PRES WELLINGTON_LAT WELLINGTON_LON WELLINGTON_WIND WELLINGTON_PRES DS824_LAT DS824_LON DS824_STAGE DS824_WIND DS824_PRES TD9636_LAT TD9636_LON TD9636_STAGE TD9636_WIND TD9636_PRES TD9635_LAT TD9635_LON TD9635_WIND TD9635_PRES TD9635_ROCI NEUMANN_LAT NEUMANN_LON NEUMANN_CLASS NEUMANN_WIND NEUMANN_PRES MLC_LAT MLC_LON MLC_CLASS MLC_WIND MLC_PRES USA_GUST BOM_GUST BOM_GUST_PER REUNION_GUST REUNION_GUST_PER USA_SEAHGT USA_SEARAD_NE USA_SEARAD_SE USA_SEARAD_SW USA_SEARAD_NW STORM_SPEED STORM_DIR
1946038S13150 1946 10 SP EA NOT_NAMED 1946-02-06 23:00:00 NR -12.7000 150.400 1002 bom main 223 223 ______O___O___ -1 -12.7000 150.400 1002 -12.7000 150.400 7 8 239
1946038S13150 1946 10 SP EA NOT_NAMED 1946-02-07 00:00:00 TS -12.7640 150.290 main 235 235 O_____P__OP___ jtwc_sh SH101946 -12.8000 150.300 -1 -12.7312 150.278 -12.7000 150.300 TC 25 1002 -12.7929 150.287 7 8 240
1946038S13150 1946 10 SP EA NOT_NAMED 1946-02-07 03:00:00 TS -12.9613 149.934 main 259 259 P_____P__PP___ SH101946 -13.0451 149.943 -1 -12.8280 149.911 -12.8346 149.928 TC -13.0674 149.948 7 8 240
1946038S13150 1946 10 SP EA NOT_NAMED 1946-02-07 06:00:00 TS -13.1638 149.584 main 287 287 O_____P__PP___ jtwc_sh SH101946 -13.3000 149.600 -1 -12.9365 149.548 -12.9762 149.558 TC -13.3274 149.617 7 8 238
1946038S13150 1946 10 SP EA NOT_NAMED 1946-02-07 09:00:00 TS -13.3781 149.251 main 317 317 P_____P__PP___ SH101946 -13.5650 149.285 -1 -13.0658 149.192 -13.1325 149.195 TC -13.5624 149.300 7 8 236
1946038S13150 1946 10 SP EA NOT_NAMED 1946-02-07 11:00:00 TS -13.5146 149.040 main 339 339 P_____P__PO___ SH101946 -13.7281 149.092 -1 -13.1681 148.959 -13.2486 148.959 TC -13.7000 149.100 7 7 236
1946038S13150 1946 10 SP EA NOT_NAMED 1946-02-07 12:00:00 TS -13.5797 148.938 main 353 353 O_____P__PP___ jtwc_sh SH101946 -13.8000 149.000 -1 -13.2251 148.844 -13.3110 148.843 TC -13.7621 149.004 7 7 238
1946038S13150 1946 10 SP EA NOT_NAMED 1946-02-07 15:00:00 TS -13.7575 148.648 main 380 380 P_____P__PP___ SH101946 -13.9574 148.750 -1 -13.4235 148.509 -13.5194 148.503 TC -13.9296 148.728 7 7 238
1946038S13150 1946 10 SP EA NOT_NAMED 1946-02-07 16:00:00 TS -13.8169 148.554 bom main 380 355 P_____O__PP___ SH101946 -14.0029 148.669 -1 -13.5000 148.400 -13.5968 148.394 TC -13.9822 148.638 7 7 236
1946038S13150 1946 10 SP EA NOT_NAMED 1946-02-07 18:00:00 TS -13.9447 148.366 main 355 314 O_____P__PP___ jtwc_sh SH101946 -14.1000 148.500 -1 -13.6701 148.188 -13.7652 148.181 TC -14.0880 148.460 7 7 233
1946038S13150 1946 10 SP EA NOT_NAMED 1946-02-07 21:00:00 TS -14.1686 148.077 main 314 290 P_____P__PP___ SH101946 -14.2775 148.215 -1 -13.9696 147.887 -14.0562 147.879 TC -14.2625 148.189 7 7 230
1946038S13150 1946 10 SP EA NOT_NAMED 1946-02-07 23:00:00 TS -14.3435 147.881 999 bom main 290 277 P_____O__PO___ SH101946 -14.4193 148.008 -1 -14.2000 147.700 999 -14.2790 147.690 TC -14.4000 148.000 7 8 226
1946038S13150 1946 10 SP EA NOT_NAMED 1946-02-08 00:00:00 TS -14.4412 147.783 main 277 232 O_____P__OP___ jtwc_sh SH101946 -14.5000 147.900 -1 -14.3289 147.618 -14.4000 147.600 TC 30 999 -14.4771 147.896 7 9 222
1946038S13150 1946 10 SP EA NOT_NAMED 1946-02-08 03:00:00 TS -14.7735 147.484 main 232 194 P_____P__PP___ SH101946 -14.7850 147.550 -1 -14.7647 147.402 -14.7991 147.345 TC -14.7334 147.571 7 9 219
1946038S13150 1946 10 SP EA NOT_NAMED 1946-02-08 06:00:00 TS -15.1419 147.190 main 194 162 O_____P__PP___ jtwc_sh SH101946 -15.1000 147.200 -1 -15.2473 147.209 -15.2352 147.103 TC -15.0272 147.239 7 9 217
1946038S13150 1946 10 SP EA NOT_NAMED 1946-02-08 09:00:00 TS -15.5080 146.907 main 162 135 P_____P__PP___ SH101946 -15.3775 146.877 -1 -15.7421 147.012 -15.6846 146.858 TC -15.3584 146.910 7 9 216
1946038S13150 1946 10 SP EA NOT_NAMED 1946-02-08 11:00:00 TS -15.7615 146.725 main 132 130 P_____P__PO___ SH101946 -15.5829 146.686 -1 -16.0618 146.865 -15.9799 146.687 TC -15.6000 146.700 7 9 213
1946038S13150 1946 10 SP EA NOT_NAMED 1946-02-08 12:00:00 TS -15.8963 146.640 main 119 106 O_____P__PP___ jtwc_sh SH101946 -15.7000 146.600 -1 -16.2146 146.783 -16.1237 146.597 TC -15.7430 146.620 7 10 209
1946038S13150 1946 10 SP EA NOT_NAMED 1946-02-08 14:00:00 TS -16.1822 146.485 bom main 106 92 P_____O__PP___ SH101946 -15.9816 146.472 -1 -16.5000 146.600 -16.3989 146.407 TC -16.0490 146.471 7 10 207
1946038S13150 1946 10 SP EA NOT_NAMED 1946-02-08 15:00:00 TS -16.3284 146.409 main 92 46 P_____P__PP___ SH101946 -16.1348 146.415 -1 -16.6364 146.513 -16.5286 146.305 TC -16.2074 146.399 7 10 210
1946038S13150 1946 10 SP EA NOT_NAMED 1946-02-08 18:00:00 TS -16.7517 146.146 main 30 0 O_____P__PP___ jtwc_sh SH101946 -16.6000 146.200 -1 -17.0066 146.197 -16.8756 145.968 TC -16.6765 146.165 7 10 215
1946038S13150 1946 10 SP EA NOT_NAMED 1946-02-08 20:00:00 TS -17.0076 145.914 996 bom main 0 0 P_____O__PP___ SH101946 -16.9070 145.992 -1 -17.2000 145.900 996 -17.0629 145.711 TC -16.9612 145.975 7 10 223
1946038S13150 1946 10 SP EA NOT_NAMED 1946-02-08 21:00:00 TS -17.1230 145.777 main 0 0 P_____P__PP___ SH101946 -17.0523 145.868 -1 -17.2817 145.716 996 -17.1407 145.571 TC -17.0882 145.864 7 11 235
1946038S13150 1946 10 SP EA NOT_NAMED 1946-02-08 23:00:00 TS -17.3134 145.462 996 bom main 0 0 P_____O__PO___ SH101946 -17.3034 145.572 -1 -17.4000 145.300 996 4 -17.2602 145.266 TC -17.3000 145.600 7 11 241
1946038S13150 1946 10 SP EA NOT_NAMED 1946-02-09 00:00:00 TS -17.3840 145.285 main 0 0 O_____P__OP___ jtwc_sh SH101946 -17.4000 145.400 -1 -17.4368 145.090 -17.3000 145.100 TC 35 996 -17.3832 145.435 7 12 257
1946038S13150 1946 10 SP EA NOT_NAMED 1946-02-09 03:00:00 TS -17.4858 144.667 main 0 0 P_____P__PP___ SH101946 -17.5751 144.787 -1 -17.4415 144.427 -17.2807 144.476 TC -17.5564 144.858 7 12 266
1946038S13150 1946 10 SP EA NOT_NAMED 1946-02-09 06:00:00 TS -17.4607 143.982 main 0 0 O_____P__PP___ jtwc_sh SH101946 -17.6000 144.100 -1 -17.3178 143.731 -17.1656 143.786 TC -17.6201 144.191 7 13 276
1946038S13150 1946 10 SP EA NOT_NAMED 1946-02-09 09:00:00 TS -17.3573 143.295 main 0 0 P_____P__PP___ SH101946 -17.5597 143.458 -1 -17.1048 143.021 -16.9820 143.061 TC -17.5804 143.479 7 13 281
1946038S13150 1946 10 SP EA NOT_NAMED 1946-02-09 11:00:00 TS -17.2402 142.834 main 0 0 P_____P__PO___ SH101946 -17.4665 143.022 -1 -16.9326 142.549 -16.8352 142.575 TC -17.5000 143.000 7 14 286
1946038S13150 1946 10 SP EA NOT_NAMED 1946-02-09 12:00:00 TS -17.1681 142.601 main 0 0 O_____P__PP___ jtwc_sh SH101946 -17.4000 142.800 -1 -16.8418 142.316 -16.7577 142.335 TC -17.4411 142.757 7 14 291
1946038S13150 1946 10 SP EA NOT_NAMED 1946-02-09 15:00:00 TS -16.9014 141.897 main 0 0 P_____P__PP___ SH101946 -17.1149 142.100 -1 -16.5684 141.634 -16.5208 141.637 TC -17.1882 142.013 7 14 292
1946038S13150 1946 10 SP EA NOT_NAMED 1946-02-09 17:00:00 TS -16.7099 141.438 bom main 0 0 P_____O__PP___ SH101946 -16.8990 141.630 -1 -16.4000 141.200 -16.3700 141.204 TC -16.9812 141.527 7 14 293
1946038S13150 1946 10 SP EA NOT_NAMED 1946-02-09 18:00:00 TS -16.6209 141.216 main 10 10 O_____P__OP___ jtwc_sh SH101946 -16.8000 141.400 -1 -16.3307 140.986 -16.3000 141.000 TC -16.8738 141.293 7 13 291
1946038S13150 1946 10 SP EA NOT_NAMED 1946-02-09 21:00:00 TS -16.3997 140.578 main 72 72 P_____P__PP___ SH101946 -16.5627 140.683 -1 -16.1239 140.371 -16.1828 140.502 TC -16.5667 140.654 7 12 289
1946038S13150 1946 10 SP EA NOT_NAMED 1946-02-09 23:00:00 TS -16.2809 140.209 1000 bom main 115 115 P_____O__PO___ SH101946 -16.4444 140.268 -1 -16.0000 140.000 1000 -16.1159 140.206 TC -16.4000 140.300 7 11 288
1946038S13150 1946 10 SP EA NOT_NAMED 1946-02-10 00:00:00 TS -16.2376 140.053 main 130 104 O_____P__PP___ jtwc_sh SH101946 -16.4000 140.100 -1 -15.9485 139.832 -16.0856 140.069 TC -16.3538 140.164 7 8 285
1946038S13150 1946 10 SP EA NOT_NAMED 1946-02-10 03:00:00 TS -16.1511 139.702 main 104 104 P_____P__PP___ SH101946 -16.3272 139.783 -1 -15.8285 139.399 -16.0065 139.693 TC -16.2660 139.850 7 6 283
1946038S13150 1946 10 SP EA NOT_NAMED 1946-02-10 06:00:00 TS -16.1056 139.451 main 104 92 O_____P__PP___ jtwc_sh SH101946 -16.3000 139.600 -1 -15.7539 139.057 -15.9437 139.367 TC -16.2302 139.630 7 5 280
1946038S13150 1946 10 SP EA NOT_NAMED 1946-02-10 09:00:00 TS -16.0683 139.228 main 92 90 P_____P__PP___ SH101946 -16.2574 139.415 -1 -15.7169 138.790 -15.8954 139.081 TC -16.2147 139.440 7 4 280
1946038S13150 1946 10 SP EA NOT_NAMED 1946-02-10 11:00:00 TS -16.0448 139.084 main 101 99 P_____P__PO___ SH101946 -16.2223 139.281 -1 -15.7089 138.645 -15.8702 138.910 TC -16.2000 139.300 7 4 280
1946038S13150 1946 10 SP EA NOT_NAMED 1946-02-10 12:00:00 TS -16.0287 139.001 main 99 90 O_____P__PP___ jtwc_sh SH101946 -16.2000 139.200 -1 -15.7091 138.580 -15.8595 138.830 TC -16.1747 139.193 7 5 282
1946038S13150 1946 10 SP EA NOT_NAMED 1946-02-10 15:00:00 TS -15.9697 138.719 main 90 82 P_____P__PP___ SH101946 -16.1001 138.865 -1 -15.7223 138.411 -15.8342 138.603 TC -16.0919 138.852 7 6 282
1946038S13150 1946 10 SP EA NOT_NAMED 1946-02-10 18:00:00 TS -15.9147 138.433 main 82 63 O_____P__PP___ jtwc_sh SH101946 -16.0000 138.500 -1 -15.7481 138.264 -15.8172 138.395 TC -16.0081 138.506 7 5 280
1946038S13150 1946 10 SP EA NOT_NAMED 1946-02-10 21:00:00 TS -15.8780 138.169 main 63 46 P_____P__PP___ SH101946 -15.9350 138.170 -1 -15.7780 138.124 -15.8065 138.196 TC -15.9357 138.184 7 5 277
1946038S13150 1946 10 SP EA NOT_NAMED 1946-02-10 23:00:00 TS -15.8629 138.010 main 46 46 P_____P__PO___ SH101946 -15.9083 137.980 -1 -15.7961 138.026 -15.8018 138.066 TC -15.9000 138.000 7 5 275
1946038S13150 1946 10 SP EA NOT_NAMED 1946-02-10 23:30:00 TS -15.8606 137.975 999 bom main 46 46 P_____O__PP___ SH101946 -15.9038 137.939 -1 -15.8000 138.000 999 -15.8009 138.033 TC -15.8945 137.964 7 4 274
1946038S13150 1946 10 SP EA NOT_NAMED 1946-02-11 00:00:00 TS -15.8577 137.939 main 39 35 O_____P__OP___ jtwc_sh SH101946 -15.9000 137.900 -1 -15.7985 137.964 -15.8000 138.000 TC 30 999 -15.8898 137.930 7 4 273
1946038S13150 1946 10 SP EA NOT_NAMED 1946-02-11 03:00:00 TS -15.8499 137.754 main 46 30 P_____P__PP___ SH101946 -15.8924 137.728 -1 -15.7927 137.756 -15.7959 137.800 TC -15.8759 137.761 7 3 271
1946038S13150 1946 10 SP EA NOT_NAMED 1946-02-11 06:00:00 TS -15.8529 137.595 main 30 22 O_____P__PP___ jtwc_sh SH101946 -15.9000 137.600 -1 -15.7912 137.555 -15.7935 137.594 TC -15.8797 137.628 7 3 269
1946038S13150 1946 10 SP EA NOT_NAMED 1946-02-11 09:00:00 TS -15.8554 137.431 main 22 15 P_____P__PP___ SH101946 -15.9000 137.458 -1 -15.7925 137.355 -15.7926 137.385 TC -15.8919 137.499 7 3 269
1946038S13150 1946 10 SP EA NOT_NAMED 1946-02-11 11:00:00 TS -15.8574 137.315 main 15 15 P_____P__PO___ SH101946 -15.9000 137.356 -1 -15.7944 137.221 -15.7926 137.243 TC -15.9000 137.400 7 3 269
1946038S13150 1946 10 SP EA NOT_NAMED 1946-02-11 12:00:00 TS -15.8583 137.254 main 15 11 O_____P__PP___ jtwc_sh SH101946 -15.9000 137.300 -1 -15.7954 137.153 -15.7928 137.172 TC -15.9030 137.344 7 4 270
1946038S13150 1946 10 SP EA NOT_NAMED 1946-02-11 15:00:00 TS -15.8556 137.047 main 11 11 P_____P__PP___ SH101946 -15.9001 137.110 -1 -15.7985 136.945 -15.7940 136.956 TC -15.9078 137.147 7 4 271
1946038S13150 1946 10 SP EA NOT_NAMED 1946-02-11 17:00:00 TS -15.8508 136.895 1000 bom main 11 10 P_____O__PP___ SH101946 -15.9000 136.971 -1 -15.8000 136.800 1000 -15.7951 136.811 TC -15.9080 136.997 7 5 274
1946038S13150 1946 10 SP EA NOT_NAMED 1946-02-11 18:00:00 TS -15.8390 136.801 main 10 0 O_____P__PP___ jtwc_sh SH101946 -15.9000 136.900 -1 -15.8004 136.726 1000 -15.7958 136.739 TC -15.9073 136.919 7 5 275
1946038S13150 1946 10 SP EA NOT_NAMED 1946-02-11 21:00:00 TS -15.8223 136.545 main 0 0 ______P__PP___ SH101946 -1 -15.8006 136.496 1000 -15.7979 136.520 TC -15.9035 136.670 7 5 273
1946038S13150 1946 10 SP EA NOT_NAMED 1946-02-11 23:00:00 TS -15.8164 136.383 main 0 0 ______P__PO___ SH101946 -1 -15.8002 136.339 1000 -15.7993 136.373 TC -15.9000 136.500 7 5 276
1946038S13150 1946 10 SP EA NOT_NAMED 1946-02-11 23:30:00 TS -15.7998 136.324 1000 bom main 0 0 ______O__P____ SH101946 -1 -15.8000 136.300 1000 -15.7997 136.337 TC 7 5 282
1946038S13150 1946 10 SP EA NOT_NAMED 1946-02-12 00:00:00 TS -15.8000 136.300 main 0 _________O____ -1 -15.8000 136.300 TC 30 1000 7 3 0

デジタル台風データ・検索

IBTrACS Databaseについて

本データベースは、米国NOAAが公開する1842年以降の世界の熱帯低気圧のベストトラックデータアーカイブInternational Best Track Archive for Climate Stewardship (IBTrACS)を、ウェブで閲覧しやすい形式に変換したものです。

最終更新日:2021-10-08